sensor_id;sensor_type;location;lat;lon;timestamp;temperature;humidity
13472;DHT22;6808;49.444;11.034;2022-09-09T00:02:19;15.50;99.90
13472;DHT22;6808;49.444;11.034;2022-09-09T00:07:49;15.40;99.90
13472;DHT22;6808;49.444;11.034;2022-09-09T00:10:32;15.40;99.90
13472;DHT22;6808;49.444;11.034;2022-09-09T00:15:40;15.40;99.90
13472;DHT22;6808;49.444;11.034;2022-09-09T00:18:28;15.20;99.90
13472;DHT22;6808;49.444;11.034;2022-09-09T00:21:16;15.20;99.90
13472;DHT22;6808;49.444;11.034;2022-09-09T00:23:53;15.20;99.90
13472;DHT22;6808;49.444;11.034;2022-09-09T00:26:38;15.10;99.90
13472;DHT22;6808;49.444;11.034;2022-09-09T00:29:20;15.10;99.90
13472;DHT22;6808;49.444;11.034;2022-09-09T00:31:48;15.00;99.90
13472;DHT22;6808;49.444;11.034;2022-09-09T00:34:24;15.00;99.90
13472;DHT22;6808;49.444;11.034;2022-09-09T00:36:52;15.10;99.90
13472;DHT22;6808;49.444;11.034;2022-09-09T00:39:37;15.20;99.90
13472;DHT22;6808;49.444;11.034;2022-09-09T00:42:17;15.20;99.90
13472;DHT22;6808;49.444;11.034;2022-09-09T00:44:58;15.30;99.90
13472;DHT22;6808;49.444;11.034;2022-09-09T00:50:30;15.20;99.90
13472;DHT22;6808;49.444;11.034;2022-09-09T00:55:28;15.00;99.90
13472;DHT22;6808;49.444;11.034;2022-09-09T00:57:58;15.00;99.90
13472;DHT22;6808;49.444;11.034;2022-09-09T01:00:27;15.00;99.90
13472;DHT22;6808;49.444;11.034;2022-09-09T01:03:01;15.00;99.90
13472;DHT22;6808;49.444;11.034;2022-09-09T01:05:39;14.90;99.90
13472;DHT22;6808;49.444;11.034;2022-09-09T01:10:59;14.90;99.90
13472;DHT22;6808;49.444;11.034;2022-09-09T01:13:28;14.90;99.90
13472;DHT22;6808;49.444;11.034;2022-09-09T01:15:58;15.00;99.90
13472;DHT22;6808;49.444;11.034;2022-09-09T01:18:29;15.00;99.90
13472;DHT22;6808;49.444;11.034;2022-09-09T01:26:37;14.60;99.90
13472;DHT22;6808;49.444;11.034;2022-09-09T01:29:08;14.50;99.90
13472;DHT22;6808;49.444;11.034;2022-09-09T01:34:40;14.40;99.90
13472;DHT22;6808;49.444;11.034;2022-09-09T01:37:08;14.40;99.90
13472;DHT22;6808;49.444;11.034;2022-09-09T01:39:36;14.40;99.90
13472;DHT22;6808;49.444;11.034;2022-09-09T01:42:05;14.60;99.90
13472;DHT22;6808;49.444;11.034;2022-09-09T01:44:32;14.50;99.90
13472;DHT22;6808;49.444;11.034;2022-09-09T01:46:58;14.60;99.90
13472;DHT22;6808;49.444;11.034;2022-09-09T01:49:24;14.60;99.90
13472;DHT22;6808;49.444;11.034;2022-09-09T01:51:54;14.50;99.90
13472;DHT22;6808;49.444;11.034;2022-09-09T01:54:23;14.50;99.90
13472;DHT22;6808;49.444;11.034;2022-09-09T01:57:06;14.40;99.90
13472;DHT22;6808;49.444;11.034;2022-09-09T02:05:00;14.50;99.90
13472;DHT22;6808;49.444;11.034;2022-09-09T02:07:40;14.50;99.90
13472;DHT22;6808;49.444;11.034;2022-09-09T02:10:16;14.50;99.90
13472;DHT22;6808;49.444;11.034;2022-09-09T02:12:47;14.50;99.90
13472;DHT22;6808;49.444;11.034;2022-09-09T02:15:22;14.50;99.90
13472;DHT22;6808;49.444;11.034;2022-09-09T02:17:50;14.40;99.90
13472;DHT22;6808;49.444;11.034;2022-09-09T02:20:18;14.30;99.90
13472;DHT22;6808;49.444;11.034;2022-09-09T02:22:46;14.40;99.90
13472;DHT22;6808;49.444;11.034;2022-09-09T02:25:17;14.40;99.90
13472;DHT22;6808;49.444;11.034;2022-09-09T02:27:45;14.40;99.90
13472;DHT22;6808;49.444;11.034;2022-09-09T02:30:13;14.40;99.90
13472;DHT22;6808;49.444;11.034;2022-09-09T02:32:39;14.30;99.90
13472;DHT22;6808;49.444;11.034;2022-09-09T02:35:13;14.40;99.90
13472;DHT22;6808;49.444;11.034;2022-09-09T02:37:41;14.40;99.90
13472;DHT22;6808;49.444;11.034;2022-09-09T02:40:09;14.40;99.90
13472;DHT22;6808;49.444;11.034;2022-09-09T02:42:40;14.50;99.90
13472;DHT22;6808;49.444;11.034;2022-09-09T02:45:07;14.60;99.90
13472;DHT22;6808;49.444;11.034;2022-09-09T02:50:17;14.70;99.90
13472;DHT22;6808;49.444;11.034;2022-09-09T02:58:05;14.90;99.90
13472;DHT22;6808;49.444;11.034;2022-09-09T03:00:33;14.90;99.90
13472;DHT22;6808;49.444;11.034;2022-09-09T03:03:04;14.90;99.90
13472;DHT22;6808;49.444;11.034;2022-09-09T03:05:30;14.90;99.90
13472;DHT22;6808;49.444;11.034;2022-09-09T03:07:55;14.90;99.90
13472;DHT22;6808;49.444;11.034;2022-09-09T03:10:21;15.00;99.90
13472;DHT22;6808;49.444;11.034;2022-09-09T03:12:47;15.00;99.90
13472;DHT22;6808;49.444;11.034;2022-09-09T03:15:13;15.00;99.90
13472;DHT22;6808;49.444;11.034;2022-09-09T03:17:40;14.90;99.90
13472;DHT22;6808;49.444;11.034;2022-09-09T03:20:06;15.00;99.90
13472;DHT22;6808;49.444;11.034;2022-09-09T03:22:33;15.00;99.90
13472;DHT22;6808;49.444;11.034;2022-09-09T03:24:59;15.00;99.90
13472;DHT22;6808;49.444;11.034;2022-09-09T03:27:25;15.00;99.90
13472;DHT22;6808;49.444;11.034;2022-09-09T03:29:51;15.00;99.90
13472;DHT22;6808;49.444;11.034;2022-09-09T03:32:18;14.80;99.90
13472;DHT22;6808;49.444;11.034;2022-09-09T03:34:44;14.80;99.90
13472;DHT22;6808;49.444;11.034;2022-09-09T03:37:10;14.80;99.90
13472;DHT22;6808;49.444;11.034;2022-09-09T03:39:36;14.80;99.90
13472;DHT22;6808;49.444;11.034;2022-09-09T03:42:01;14.90;99.90
13472;DHT22;6808;49.444;11.034;2022-09-09T03:44:31;14.90;99.90
13472;DHT22;6808;49.444;11.034;2022-09-09T03:46:57;14.90;99.90
13472;DHT22;6808;49.444;11.034;2022-09-09T03:49:26;14.90;99.90
13472;DHT22;6808;49.444;11.034;2022-09-09T03:51:54;14.90;99.90
13472;DHT22;6808;49.444;11.034;2022-09-09T03:54:20;14.90;99.90
13472;DHT22;6808;49.444;11.034;2022-09-09T03:56:45;14.90;99.90
13472;DHT22;6808;49.444;11.034;2022-09-09T03:59:11;14.90;99.90
13472;DHT22;6808;49.444;11.034;2022-09-09T04:01:36;14.90;99.90
13472;DHT22;6808;49.444;11.034;2022-09-09T04:04:02;15.00;99.90
13472;DHT22;6808;49.444;11.034;2022-09-09T04:06:28;15.00;99.90
13472;DHT22;6808;49.444;11.034;2022-09-09T04:08:54;15.00;99.90
13472;DHT22;6808;49.444;11.034;2022-09-09T04:11:20;15.00;99.90
13472;DHT22;6808;49.444;11.034;2022-09-09T04:13:46;15.00;99.90
13472;DHT22;6808;49.444;11.034;2022-09-09T04:16:12;15.00;99.90
13472;DHT22;6808;49.444;11.034;2022-09-09T04:18:41;15.00;99.90
13472;DHT22;6808;49.444;11.034;2022-09-09T04:21:08;14.90;99.90
13472;DHT22;6808;49.444;11.034;2022-09-09T04:23:33;14.90;99.90
13472;DHT22;6808;49.444;11.034;2022-09-09T04:26:01;14.90;99.90
13472;DHT22;6808;49.444;11.034;2022-09-09T04:28:28;14.80;99.90
13472;DHT22;6808;49.444;11.034;2022-09-09T04:30:55;14.80;99.90
13472;DHT22;6808;49.444;11.034;2022-09-09T04:33:23;14.80;99.90
13472;DHT22;6808;49.444;11.034;2022-09-09T04:35:51;14.80;99.90
13472;DHT22;6808;49.444;11.034;2022-09-09T04:38:20;14.80;99.90
13472;DHT22;6808;49.444;11.034;2022-09-09T04:40:48;14.80;99.90
13472;DHT22;6808;49.444;11.034;2022-09-09T04:43:15;14.80;99.90
13472;DHT22;6808;49.444;11.034;2022-09-09T04:45:41;14.70;99.90
13472;DHT22;6808;49.444;11.034;2022-09-09T04:48:08;14.60;99.90
13472;DHT22;6808;49.444;11.034;2022-09-09T04:50:35;14.60;99.90
13472;DHT22;6808;49.444;11.034;2022-09-09T04:53:02;14.60;99.90
13472;DHT22;6808;49.444;11.034;2022-09-09T04:55:27;14.70;99.90
13472;DHT22;6808;49.444;11.034;2022-09-09T04:57:53;14.70;99.90
13472;DHT22;6808;49.444;11.034;2022-09-09T05:00:19;14.70;99.90
13472;DHT22;6808;49.444;11.034;2022-09-09T05:02:44;14.70;99.90
13472;DHT22;6808;49.444;11.034;2022-09-09T05:05:10;14.70;99.90
13472;DHT22;6808;49.444;11.034;2022-09-09T05:07:36;14.80;99.90
13472;DHT22;6808;49.444;11.034;2022-09-09T05:10:02;14.80;99.90
13472;DHT22;6808;49.444;11.034;2022-09-09T05:12:31;14.80;99.90
13472;DHT22;6808;49.444;11.034;2022-09-09T05:14:57;14.80;99.90
13472;DHT22;6808;49.444;11.034;2022-09-09T05:17:23;14.80;99.90
13472;DHT22;6808;49.444;11.034;2022-09-09T05:19:49;14.80;99.90
13472;DHT22;6808;49.444;11.034;2022-09-09T05:22:21;14.80;99.90
13472;DHT22;6808;49.444;11.034;2022-09-09T05:24:49;14.80;99.90
13472;DHT22;6808;49.444;11.034;2022-09-09T05:27:19;14.80;99.90
13472;DHT22;6808;49.444;11.034;2022-09-09T05:29:45;14.80;99.90
13472;DHT22;6808;49.444;11.034;2022-09-09T05:32:11;14.80;99.90
13472;DHT22;6808;49.444;11.034;2022-09-09T05:34:36;14.80;99.90
13472;DHT22;6808;49.444;11.034;2022-09-09T05:37:05;14.80;99.90
13472;DHT22;6808;49.444;11.034;2022-09-09T05:39:32;14.80;99.90
13472;DHT22;6808;49.444;11.034;2022-09-09T05:41:58;14.90;99.90
13472;DHT22;6808;49.444;11.034;2022-09-09T05:44:23;14.90;99.90
13472;DHT22;6808;49.444;11.034;2022-09-09T05:46:52;14.90;99.90
13472;DHT22;6808;49.444;11.034;2022-09-09T05:49:19;14.90;99.90
13472;DHT22;6808;49.444;11.034;2022-09-09T05:51:45;14.90;99.90
13472;DHT22;6808;49.444;11.034;2022-09-09T05:54:10;14.80;99.90
13472;DHT22;6808;49.444;11.034;2022-09-09T05:56:37;14.80;99.90
13472;DHT22;6808;49.444;11.034;2022-09-09T05:59:02;14.80;99.90
13472;DHT22;6808;49.444;11.034;2022-09-09T06:01:32;14.90;99.90
13472;DHT22;6808;49.444;11.034;2022-09-09T06:03:58;14.90;99.90
13472;DHT22;6808;49.444;11.034;2022-09-09T06:06:26;14.90;99.90
13472;DHT22;6808;49.444;11.034;2022-09-09T06:08:53;14.90;99.90
13472;DHT22;6808;49.444;11.034;2022-09-09T06:11:23;14.90;99.90
13472;DHT22;6808;49.444;11.034;2022-09-09T06:13:49;15.00;99.90
13472;DHT22;6808;49.444;11.034;2022-09-09T06:16:20;15.00;99.90
13472;DHT22;6808;49.444;11.034;2022-09-09T06:18:45;15.00;99.90
13472;DHT22;6808;49.444;11.034;2022-09-09T06:21:23;15.00;99.90
13472;DHT22;6808;49.444;11.034;2022-09-09T06:23:49;15.00;99.90
13472;DHT22;6808;49.444;11.034;2022-09-09T06:26:30;15.00;99.90
13472;DHT22;6808;49.444;11.034;2022-09-09T06:28:57;15.10;99.90
13472;DHT22;6808;49.444;11.034;2022-09-09T06:31:25;15.10;99.90
13472;DHT22;6808;49.444;11.034;2022-09-09T06:33:53;15.10;99.90
13472;DHT22;6808;49.444;11.034;2022-09-09T06:36:30;15.20;99.90
13472;DHT22;6808;49.444;11.034;2022-09-09T06:38:56;15.20;99.90
13472;DHT22;6808;49.444;11.034;2022-09-09T06:41:25;15.30;99.90
13472;DHT22;6808;49.444;11.034;2022-09-09T06:43:51;15.30;99.90
13472;DHT22;6808;49.444;11.034;2022-09-09T06:46:22;15.30;99.90
13472;DHT22;6808;49.444;11.034;2022-09-09T06:48:48;15.40;99.90
13472;DHT22;6808;49.444;11.034;2022-09-09T06:51:22;15.50;99.90
13472;DHT22;6808;49.444;11.034;2022-09-09T06:53:51;15.60;99.90
13472;DHT22;6808;49.444;11.034;2022-09-09T06:58:54;15.80;99.90
13472;DHT22;6808;49.444;11.034;2022-09-09T07:01:23;15.90;99.90
13472;DHT22;6808;49.444;11.034;2022-09-09T07:03:53;16.10;99.90
13472;DHT22;6808;49.444;11.034;2022-09-09T07:06:25;16.20;99.90
13472;DHT22;6808;49.444;11.034;2022-09-09T07:08:53;16.30;99.90
13472;DHT22;6808;49.444;11.034;2022-09-09T07:11:22;16.40;99.90
13472;DHT22;6808;49.444;11.034;2022-09-09T07:13:48;16.40;99.90
13472;DHT22;6808;49.444;11.034;2022-09-09T07:16:16;16.50;99.90
13472;DHT22;6808;49.444;11.034;2022-09-09T07:18:43;16.50;99.90
13472;DHT22;6808;49.444;11.034;2022-09-09T07:21:13;16.50;99.90
13472;DHT22;6808;49.444;11.034;2022-09-09T07:23:40;16.60;99.90
13472;DHT22;6808;49.444;11.034;2022-09-09T07:26:14;16.40;99.90
13472;DHT22;6808;49.444;11.034;2022-09-09T07:28:41;16.50;99.90
13472;DHT22;6808;49.444;11.034;2022-09-09T07:31:08;16.50;99.90
13472;DHT22;6808;49.444;11.034;2022-09-09T07:33:38;16.50;99.90
13472;DHT22;6808;49.444;11.034;2022-09-09T07:36:08;16.50;99.90
13472;DHT22;6808;49.444;11.034;2022-09-09T07:38:39;16.60;99.90
13472;DHT22;6808;49.444;11.034;2022-09-09T07:41:09;16.60;99.90
13472;DHT22;6808;49.444;11.034;2022-09-09T07:43:42;16.60;99.90
13472;DHT22;6808;49.444;11.034;2022-09-09T07:46:10;16.60;99.90
13472;DHT22;6808;49.444;11.034;2022-09-09T07:48:38;16.70;99.90
13472;DHT22;6808;49.444;11.034;2022-09-09T07:51:10;16.80;99.90
13472;DHT22;6808;49.444;11.034;2022-09-09T07:53:38;16.80;99.90
13472;DHT22;6808;49.444;11.034;2022-09-09T07:56:06;16.90;99.90
13472;DHT22;6808;49.444;11.034;2022-09-09T07:58:32;17.10;99.90
13472;DHT22;6808;49.444;11.034;2022-09-09T08:00:57;17.20;99.90
13472;DHT22;6808;49.444;11.034;2022-09-09T08:03:23;17.40;99.90
13472;DHT22;6808;49.444;11.034;2022-09-09T08:05:49;17.50;99.90
13472;DHT22;6808;49.444;11.034;2022-09-09T08:08:15;17.60;99.90
13472;DHT22;6808;49.444;11.034;2022-09-09T08:10:42;17.80;99.90
13472;DHT22;6808;49.444;11.034;2022-09-09T08:13:08;17.80;99.90
13472;DHT22;6808;49.444;11.034;2022-09-09T08:15:34;17.70;99.90
13472;DHT22;6808;49.444;11.034;2022-09-09T08:17:59;17.70;99.90
13472;DHT22;6808;49.444;11.034;2022-09-09T08:20:25;18.10;99.90
13472;DHT22;6808;49.444;11.034;2022-09-09T08:22:51;18.10;99.90
13472;DHT22;6808;49.444;11.034;2022-09-09T08:25:16;18.30;99.90
13472;DHT22;6808;49.444;11.034;2022-09-09T08:27:42;18.20;99.90
13472;DHT22;6808;49.444;11.034;2022-09-09T08:30:08;18.20;99.90
13472;DHT22;6808;49.444;11.034;2022-09-09T08:32:34;18.30;99.90
13472;DHT22;6808;49.444;11.034;2022-09-09T08:35:00;18.30;99.90
13472;DHT22;6808;49.444;11.034;2022-09-09T08:37:26;18.30;99.90
13472;DHT22;6808;49.444;11.034;2022-09-09T08:39:51;18.30;99.90
13472;DHT22;6808;49.444;11.034;2022-09-09T08:45:03;18.40;99.90
13472;DHT22;6808;49.444;11.034;2022-09-09T08:47:35;18.50;99.90
13472;DHT22;6808;49.444;11.034;2022-09-09T08:55:56;18.80;99.90
13472;DHT22;6808;49.444;11.034;2022-09-09T08:58:29;19.00;99.90
13472;DHT22;6808;49.444;11.034;2022-09-09T09:06:55;19.30;97.80
13472;DHT22;6808;49.444;11.034;2022-09-09T09:12:01;19.60;99.80
13472;DHT22;6808;49.444;11.034;2022-09-09T09:14:29;19.70;99.20
13472;DHT22;6808;49.444;11.034;2022-09-09T09:16:59;19.70;97.80
13472;DHT22;6808;49.444;11.034;2022-09-09T09:19:26;19.80;99.50
13472;DHT22;6808;49.444;11.034;2022-09-09T09:21:54;19.80;99.60
13472;DHT22;6808;49.444;11.034;2022-09-09T09:24:27;19.90;96.00
13472;DHT22;6808;49.444;11.034;2022-09-09T09:26:59;20.10;95.50
13472;DHT22;6808;49.444;11.034;2022-09-09T09:29:26;20.30;99.90
13472;DHT22;6808;49.444;11.034;2022-09-09T09:31:53;20.30;97.10
13472;DHT22;6808;49.444;11.034;2022-09-09T09:34:21;20.50;95.00
13472;DHT22;6808;49.444;11.034;2022-09-09T09:36:56;20.50;97.80
13472;DHT22;6808;49.444;11.034;2022-09-09T09:39:31;20.60;97.80
13472;DHT22;6808;49.444;11.034;2022-09-09T09:41:56;20.50;97.30
13472;DHT22;6808;49.444;11.034;2022-09-09T09:46:52;20.50;96.00
13472;DHT22;6808;49.444;11.034;2022-09-09T09:49:18;20.60;97.30
13472;DHT22;6808;49.444;11.034;2022-09-09T09:51:44;20.70;97.50
13472;DHT22;6808;49.444;11.034;2022-09-09T09:56:39;20.80;96.50
13472;DHT22;6808;49.444;11.034;2022-09-09T09:59:05;20.90;97.20
13472;DHT22;6808;49.444;11.034;2022-09-09T10:01:32;21.00;95.40
13472;DHT22;6808;49.444;11.034;2022-09-09T10:04:01;21.10;94.20
13472;DHT22;6808;49.444;11.034;2022-09-09T10:06:35;21.10;97.40
13472;DHT22;6808;49.444;11.034;2022-09-09T10:09:03;21.10;94.30
13472;DHT22;6808;49.444;11.034;2022-09-09T10:11:44;21.20;98.00
13472;DHT22;6808;49.444;11.034;2022-09-09T10:14:21;21.40;95.70
13472;DHT22;6808;49.444;11.034;2022-09-09T10:19:34;21.60;97.40
13472;DHT22;6808;49.444;11.034;2022-09-09T10:24:54;21.60;94.90
13472;DHT22;6808;49.444;11.034;2022-09-09T10:30:12;21.60;97.70
13472;DHT22;6808;49.444;11.034;2022-09-09T10:35:53;21.80;96.60
13472;DHT22;6808;49.444;11.034;2022-09-09T10:38:34;22.00;96.90
13472;DHT22;6808;49.444;11.034;2022-09-09T10:49:10;22.10;92.50
13472;DHT22;6808;49.444;11.034;2022-09-09T10:57:02;22.00;90.60
13472;DHT22;6808;49.444;11.034;2022-09-09T10:59:33;22.00;92.50
13472;DHT22;6808;49.444;11.034;2022-09-09T11:02:03;21.80;93.70
13472;DHT22;6808;49.444;11.034;2022-09-09T11:04:40;21.70;97.40
13472;DHT22;6808;49.444;11.034;2022-09-09T11:07:12;21.60;96.10
13472;DHT22;6808;49.444;11.034;2022-09-09T11:09:42;21.50;96.20
13472;DHT22;6808;49.444;11.034;2022-09-09T11:12:18;21.40;95.50
13472;DHT22;6808;49.444;11.034;2022-09-09T11:14:50;21.30;96.10
13472;DHT22;6808;49.444;11.034;2022-09-09T11:17:20;21.30;94.70
13472;DHT22;6808;49.444;11.034;2022-09-09T11:19:46;21.20;95.60
13472;DHT22;6808;49.444;11.034;2022-09-09T11:22:29;21.30;95.60
13472;DHT22;6808;49.444;11.034;2022-09-09T11:25:21;21.20;96.10
13472;DHT22;6808;49.444;11.034;2022-09-09T11:28:25;21.30;96.40
13472;DHT22;6808;49.444;11.034;2022-09-09T11:31:06;21.30;95.60
13472;DHT22;6808;49.444;11.034;2022-09-09T11:41:39;21.30;95.40
13472;DHT22;6808;49.444;11.034;2022-09-09T11:44:17;21.30;96.10
13472;DHT22;6808;49.444;11.034;2022-09-09T11:46:46;21.40;96.30
13472;DHT22;6808;49.444;11.034;2022-09-09T11:52:12;21.50;96.10
13472;DHT22;6808;49.444;11.034;2022-09-09T11:54:48;21.40;95.10
13472;DHT22;6808;49.444;11.034;2022-09-09T11:57:31;21.50;95.20
13472;DHT22;6808;49.444;11.034;2022-09-09T11:59:57;21.40;92.90
13472;DHT22;6808;49.444;11.034;2022-09-09T12:02:25;21.30;93.20
13472;DHT22;6808;49.444;11.034;2022-09-09T12:05:11;21.30;92.30
13472;DHT22;6808;49.444;11.034;2022-09-09T12:07:45;21.30;95.60
13472;DHT22;6808;49.444;11.034;2022-09-09T12:12:43;21.20;92.90
13472;DHT22;6808;49.444;11.034;2022-09-09T12:17:46;21.20;92.70
13472;DHT22;6808;49.444;11.034;2022-09-09T12:28:11;21.00;92.40
13472;DHT22;6808;49.444;11.034;2022-09-09T12:31:01;21.10;91.40
13472;DHT22;6808;49.444;11.034;2022-09-09T12:33:35;21.20;89.10
13472;DHT22;6808;49.444;11.034;2022-09-09T12:36:01;21.40;89.80
13472;DHT22;6808;49.444;11.034;2022-09-09T12:38:40;21.70;91.80
13472;DHT22;6808;49.444;11.034;2022-09-09T12:41:15;22.00;91.90
13472;DHT22;6808;49.444;11.034;2022-09-09T12:43:44;22.10;90.90
13472;DHT22;6808;49.444;11.034;2022-09-09T12:46:32;22.00;87.30
13472;DHT22;6808;49.444;11.034;2022-09-09T12:49:01;22.20;89.40
13472;DHT22;6808;49.444;11.034;2022-09-09T12:51:30;22.40;91.20
13472;DHT22;6808;49.444;11.034;2022-09-09T12:53:58;22.50;90.90
13472;DHT22;6808;49.444;11.034;2022-09-09T12:56:29;22.40;90.90
13472;DHT22;6808;49.444;11.034;2022-09-09T12:58:57;22.30;91.10
13472;DHT22;6808;49.444;11.034;2022-09-09T13:01:29;22.30;91.00
13472;DHT22;6808;49.444;11.034;2022-09-09T13:03:55;22.20;90.80
13472;DHT22;6808;49.444;11.034;2022-09-09T13:06:32;21.80;91.30
13472;DHT22;6808;49.444;11.034;2022-09-09T13:09:00;21.40;91.90
13472;DHT22;6808;49.444;11.034;2022-09-09T13:11:38;21.00;91.80
13472;DHT22;6808;49.444;11.034;2022-09-09T13:14:05;20.80;93.00
13472;DHT22;6808;49.444;11.034;2022-09-09T13:16:34;20.70;94.20
13472;DHT22;6808;49.444;11.034;2022-09-09T13:19:13;20.90;95.30
13472;DHT22;6808;49.444;11.034;2022-09-09T13:21:40;20.80;94.40
13472;DHT22;6808;49.444;11.034;2022-09-09T13:24:30;20.90;95.50
13472;DHT22;6808;49.444;11.034;2022-09-09T13:27:02;21.00;93.50
13472;DHT22;6808;49.444;11.034;2022-09-09T13:29:29;21.00;94.20
13472;DHT22;6808;49.444;11.034;2022-09-09T13:32:04;21.20;94.10
13472;DHT22;6808;49.444;11.034;2022-09-09T13:34:33;21.40;95.80
13472;DHT22;6808;49.444;11.034;2022-09-09T13:37:01;21.60;96.00
13472;DHT22;6808;49.444;11.034;2022-09-09T13:39:28;21.70;94.00
13472;DHT22;6808;49.444;11.034;2022-09-09T13:41:53;21.90;94.80
13472;DHT22;6808;49.444;11.034;2022-09-09T13:44:38;22.00;95.10
13472;DHT22;6808;49.444;11.034;2022-09-09T13:49:32;21.90;94.10
13472;DHT22;6808;49.444;11.034;2022-09-09T13:52:24;22.00;94.60
13472;DHT22;6808;49.444;11.034;2022-09-09T13:54:52;21.90;91.90
13472;DHT22;6808;49.444;11.034;2022-09-09T13:57:22;21.90;92.50
13472;DHT22;6808;49.444;11.034;2022-09-09T13:59:48;21.90;92.10
13472;DHT22;6808;49.444;11.034;2022-09-09T14:02:15;21.70;92.20
13472;DHT22;6808;49.444;11.034;2022-09-09T14:04:42;21.70;91.30
13472;DHT22;6808;49.444;11.034;2022-09-09T14:07:15;21.80;93.40
13472;DHT22;6808;49.444;11.034;2022-09-09T14:09:41;21.70;92.50
13472;DHT22;6808;49.444;11.034;2022-09-09T14:12:14;21.70;92.70
13472;DHT22;6808;49.444;11.034;2022-09-09T14:14:41;21.70;92.00
13472;DHT22;6808;49.444;11.034;2022-09-09T14:17:10;21.70;92.20
13472;DHT22;6808;49.444;11.034;2022-09-09T14:19:35;21.60;92.30
13472;DHT22;6808;49.444;11.034;2022-09-09T14:22:03;21.60;93.00
13472;DHT22;6808;49.444;11.034;2022-09-09T14:24:28;21.50;92.80
13472;DHT22;6808;49.444;11.034;2022-09-09T14:26:55;21.60;94.70
13472;DHT22;6808;49.444;11.034;2022-09-09T14:29:20;21.60;94.10
13472;DHT22;6808;49.444;11.034;2022-09-09T14:31:46;21.50;93.80
13472;DHT22;6808;49.444;11.034;2022-09-09T14:34:12;21.40;94.40
13472;DHT22;6808;49.444;11.034;2022-09-09T14:36:39;21.40;94.80
13472;DHT22;6808;49.444;11.034;2022-09-09T14:39:05;21.20;95.20
13472;DHT22;6808;49.444;11.034;2022-09-09T14:41:31;21.30;95.50
13472;DHT22;6808;49.444;11.034;2022-09-09T14:43:57;21.20;95.80
13472;DHT22;6808;49.444;11.034;2022-09-09T14:46:22;21.10;95.70
13472;DHT22;6808;49.444;11.034;2022-09-09T14:48:48;21.00;95.00
13472;DHT22;6808;49.444;11.034;2022-09-09T14:51:20;21.00;94.90
13472;DHT22;6808;49.444;11.034;2022-09-09T14:53:48;21.10;95.20
13472;DHT22;6808;49.444;11.034;2022-09-09T14:56:18;21.00;96.20
13472;DHT22;6808;49.444;11.034;2022-09-09T14:58:45;20.90;95.80
13472;DHT22;6808;49.444;11.034;2022-09-09T15:01:14;20.90;95.50
13472;DHT22;6808;49.444;11.034;2022-09-09T15:03:41;20.90;97.70
13472;DHT22;6808;49.444;11.034;2022-09-09T15:06:07;20.90;96.40
13472;DHT22;6808;49.444;11.034;2022-09-09T15:08:40;20.90;97.00
13472;DHT22;6808;49.444;11.034;2022-09-09T15:11:07;20.80;96.00
13472;DHT22;6808;49.444;11.034;2022-09-09T15:13:34;20.90;95.60
13472;DHT22;6808;49.444;11.034;2022-09-09T15:16:06;20.90;96.20
13472;DHT22;6808;49.444;11.034;2022-09-09T15:18:33;20.90;95.80
13472;DHT22;6808;49.444;11.034;2022-09-09T15:21:05;20.90;95.50
13472;DHT22;6808;49.444;11.034;2022-09-09T15:23:35;20.90;96.50
13472;DHT22;6808;49.444;11.034;2022-09-09T15:26:01;20.90;96.40
13472;DHT22;6808;49.444;11.034;2022-09-09T15:28:28;20.80;95.60
13472;DHT22;6808;49.444;11.034;2022-09-09T15:30:54;20.80;95.90
13472;DHT22;6808;49.444;11.034;2022-09-09T15:33:21;20.80;95.50
13472;DHT22;6808;49.444;11.034;2022-09-09T15:35:47;20.70;95.90
13472;DHT22;6808;49.444;11.034;2022-09-09T15:38:15;20.80;96.50
13472;DHT22;6808;49.444;11.034;2022-09-09T15:40:42;20.60;95.90
13472;DHT22;6808;49.444;11.034;2022-09-09T15:43:08;20.70;95.40
13472;DHT22;6808;49.444;11.034;2022-09-09T15:45:35;20.70;95.40
13472;DHT22;6808;49.444;11.034;2022-09-09T15:48:01;20.60;95.00
13472;DHT22;6808;49.444;11.034;2022-09-09T15:50:27;20.50;94.60
13472;DHT22;6808;49.444;11.034;2022-09-09T15:52:52;20.60;94.40
13472;DHT22;6808;49.444;11.034;2022-09-09T15:55:19;20.50;94.50
13472;DHT22;6808;49.444;11.034;2022-09-09T15:57:45;20.60;93.40
13472;DHT22;6808;49.444;11.034;2022-09-09T16:00:12;20.50;93.00
13472;DHT22;6808;49.444;11.034;2022-09-09T16:02:38;20.40;93.10
13472;DHT22;6808;49.444;11.034;2022-09-09T16:05:04;21.40;93.20
13472;DHT22;6808;49.444;11.034;2022-09-09T16:07:30;20.30;92.00
13472;DHT22;6808;49.444;11.034;2022-09-09T16:09:55;20.30;92.50
13472;DHT22;6808;49.444;11.034;2022-09-09T16:12:21;20.40;93.40
13472;DHT22;6808;49.444;11.034;2022-09-09T16:14:47;20.10;91.70
13472;DHT22;6808;49.444;11.034;2022-09-09T16:17:12;20.20;92.30
13472;DHT22;6808;49.444;11.034;2022-09-09T16:19:39;20.10;92.40
13472;DHT22;6808;49.444;11.034;2022-09-09T16:22:05;20.10;91.80
13472;DHT22;6808;49.444;11.034;2022-09-09T16:24:32;20.10;92.50
13472;DHT22;6808;49.444;11.034;2022-09-09T16:26:58;20.10;92.90
13472;DHT22;6808;49.444;11.034;2022-09-09T16:29:24;20.20;92.40
13472;DHT22;6808;49.444;11.034;2022-09-09T16:31:53;20.20;91.50
13472;DHT22;6808;49.444;11.034;2022-09-09T16:34:19;20.10;91.30
13472;DHT22;6808;49.444;11.034;2022-09-09T16:36:46;20.10;92.50
13472;DHT22;6808;49.444;11.034;2022-09-09T16:39:17;20.00;92.40
13472;DHT22;6808;49.444;11.034;2022-09-09T16:41:44;20.00;92.20
13472;DHT22;6808;49.444;11.034;2022-09-09T16:44:12;20.10;91.90
13472;DHT22;6808;49.444;11.034;2022-09-09T16:46:41;20.10;93.20
13472;DHT22;6808;49.444;11.034;2022-09-09T16:49:09;20.10;92.00
13472;DHT22;6808;49.444;11.034;2022-09-09T16:51:37;20.10;92.80
13472;DHT22;6808;49.444;11.034;2022-09-09T16:54:05;20.10;90.80
13472;DHT22;6808;49.444;11.034;2022-09-09T16:56:34;20.10;91.40
13472;DHT22;6808;49.444;11.034;2022-09-09T16:59:07;20.20;93.80
13472;DHT22;6808;49.444;11.034;2022-09-09T17:01:36;20.10;93.30
13472;DHT22;6808;49.444;11.034;2022-09-09T17:04:05;20.20;93.80
13472;DHT22;6808;49.444;11.034;2022-09-09T17:06:32;20.00;92.90
13472;DHT22;6808;49.444;11.034;2022-09-09T17:09:08;20.00;92.70
13472;DHT22;6808;49.444;11.034;2022-09-09T17:11:34;20.00;92.00
13472;DHT22;6808;49.444;11.034;2022-09-09T17:14:00;20.00;94.00
13472;DHT22;6808;49.444;11.034;2022-09-09T17:16:28;20.00;95.10
13472;DHT22;6808;49.444;11.034;2022-09-09T17:18:55;20.00;95.40
13472;DHT22;6808;49.444;11.034;2022-09-09T17:21:22;19.90;94.80
13472;DHT22;6808;49.444;11.034;2022-09-09T17:23:49;19.90;95.10
13472;DHT22;6808;49.444;11.034;2022-09-09T17:26:17;19.90;95.60
13472;DHT22;6808;49.444;11.034;2022-09-09T17:28:44;19.80;94.80
13472;DHT22;6808;49.444;11.034;2022-09-09T17:31:12;19.60;94.90
13472;DHT22;6808;49.444;11.034;2022-09-09T17:33:40;19.60;94.70
13472;DHT22;6808;49.444;11.034;2022-09-09T17:36:10;19.50;94.60